sensor_id;sensor_type;location;lat;lon;timestamp;P1;durP1;ratioP1;P2;durP2;ratioP2
10491;SDS011;5293;51.464;-2.566;2023-04-03T00:00:22;8.00;;;2.83;;
10491;SDS011;5293;51.464;-2.566;2023-04-03T00:02:47;4.07;;;2.23;;
10491;SDS011;5293;51.464;-2.566;2023-04-03T00:05:13;5.20;;;2.20;;
10491;SDS011;5293;51.464;-2.566;2023-04-03T00:07:39;6.77;;;2.80;;
10491;SDS011;5293;51.464;-2.566;2023-04-03T00:10:05;8.13;;;2.67;;
10491;SDS011;5293;51.464;-2.566;2023-04-03T00:12:31;7.30;;;3.00;;
10491;SDS011;5293;51.464;-2.566;2023-04-03T00:14:57;4.30;;;2.50;;
10491;SDS011;5293;51.464;-2.566;2023-04-03T00:17:22;5.77;;;2.50;;
10491;SDS011;5293;51.464;-2.566;2023-04-03T00:19:48;9.63;;;2.97;;
10491;SDS011;5293;51.464;-2.566;2023-04-03T00:22:14;4.13;;;2.77;;
10491;SDS011;5293;51.464;-2.566;2023-04-03T00:24:39;8.07;;;2.93;;
10491;SDS011;5293;51.464;-2.566;2023-04-03T00:27:05;5.53;;;2.63;;
10491;SDS011;5293;51.464;-2.566;2023-04-03T00:29:31;7.57;;;2.80;;
10491;SDS011;5293;51.464;-2.566;2023-04-03T00:31:56;4.20;;;2.50;;
10491;SDS011;5293;51.464;-2.566;2023-04-03T00:34:22;6.77;;;2.50;;
10491;SDS011;5293;51.464;-2.566;2023-04-03T00:36:48;11.33;;;3.00;;
10491;SDS011;5293;51.464;-2.566;2023-04-03T00:39:13;9.50;;;2.80;;
10491;SDS011;5293;51.464;-2.566;2023-04-03T00:41:39;5.50;;;3.07;;
10491;SDS011;5293;51.464;-2.566;2023-04-03T00:44:21;7.93;;;2.80;;
10491;SDS011;5293;51.464;-2.566;2023-04-03T00:47:00;4.47;;;2.27;;
10491;SDS011;5293;51.464;-2.566;2023-04-03T00:49:28;6.23;;;2.70;;
10491;SDS011;5293;51.464;-2.566;2023-04-03T00:51:54;7.33;;;2.53;;
10491;SDS011;5293;51.464;-2.566;2023-04-03T00:54:22;8.87;;;2.67;;
10491;SDS011;5293;51.464;-2.566;2023-04-03T00:56:48;7.50;;;2.97;;
10491;SDS011;5293;51.464;-2.566;2023-04-03T00:59:17;6.60;;;2.77;;
10491;SDS011;5293;51.464;-2.566;2023-04-03T01:02:05;4.27;;;2.70;;
10491;SDS011;5293;51.464;-2.566;2023-04-03T01:04:32;6.07;;;2.70;;
10491;SDS011;5293;51.464;-2.566;2023-04-03T01:07:13;6.40;;;2.63;;
10491;SDS011;5293;51.464;-2.566;2023-04-03T01:09:42;4.80;;;2.50;;
10491;SDS011;5293;51.464;-2.566;2023-04-03T01:12:13;5.80;;;2.57;;
10491;SDS011;5293;51.464;-2.566;2023-04-03T01:14:40;7.87;;;2.83;;
10491;SDS011;5293;51.464;-2.566;2023-04-03T01:25:11;6.37;;;2.80;;
10491;SDS011;5293;51.464;-2.566;2023-04-03T01:27:37;7.40;;;2.60;;
10491;SDS011;5293;51.464;-2.566;2023-04-03T01:30:02;6.40;;;3.00;;
10491;SDS011;5293;51.464;-2.566;2023-04-03T01:32:29;5.90;;;2.87;;
10491;SDS011;5293;51.464;-2.566;2023-04-03T01:34:54;8.13;;;3.03;;
10491;SDS011;5293;51.464;-2.566;2023-04-03T01:37:20;6.00;;;3.00;;
10491;SDS011;5293;51.464;-2.566;2023-04-03T01:39:46;6.27;;;3.00;;
10491;SDS011;5293;51.464;-2.566;2023-04-03T01:42:11;5.73;;;2.90;;
10491;SDS011;5293;51.464;-2.566;2023-04-03T01:44:37;6.67;;;2.70;;
10491;SDS011;5293;51.464;-2.566;2023-04-03T01:47:05;9.07;;;2.50;;
10491;SDS011;5293;51.464;-2.566;2023-04-03T01:49:31;4.03;;;2.53;;
10491;SDS011;5293;51.464;-2.566;2023-04-03T01:51:57;8.57;;;2.80;;
10491;SDS011;5293;51.464;-2.566;2023-04-03T01:54:22;7.03;;;3.00;;
10491;SDS011;5293;51.464;-2.566;2023-04-03T01:56:48;4.87;;;3.00;;
10491;SDS011;5293;51.464;-2.566;2023-04-03T01:59:14;6.70;;;3.27;;
10491;SDS011;5293;51.464;-2.566;2023-04-03T02:01:42;10.57;;;3.50;;
10491;SDS011;5293;51.464;-2.566;2023-04-03T02:04:08;8.80;;;3.17;;
10491;SDS011;5293;51.464;-2.566;2023-04-03T02:06:34;13.50;;;3.53;;
10491;SDS011;5293;51.464;-2.566;2023-04-03T02:09:00;4.63;;;3.37;;
10491;SDS011;5293;51.464;-2.566;2023-04-03T02:11:25;6.33;;;3.10;;
10491;SDS011;5293;51.464;-2.566;2023-04-03T02:13:51;7.63;;;3.00;;
10491;SDS011;5293;51.464;-2.566;2023-04-03T02:16:17;5.60;;;2.87;;
10491;SDS011;5293;51.464;-2.566;2023-04-03T02:18:43;6.27;;;3.00;;
10491;SDS011;5293;51.464;-2.566;2023-04-03T02:21:09;6.37;;;3.00;;
10491;SDS011;5293;51.464;-2.566;2023-04-03T02:23:34;6.83;;;2.97;;
10491;SDS011;5293;51.464;-2.566;2023-04-03T02:26:11;5.73;;;2.87;;
10491;SDS011;5293;51.464;-2.566;2023-04-03T02:28:38;4.47;;;3.13;;
10491;SDS011;5293;51.464;-2.566;2023-04-03T02:31:05;8.07;;;2.97;;
10491;SDS011;5293;51.464;-2.566;2023-04-03T02:33:32;5.70;;;2.90;;
10491;SDS011;5293;51.464;-2.566;2023-04-03T02:35:59;6.60;;;3.00;;
10491;SDS011;5293;51.464;-2.566;2023-04-03T02:38:25;3.87;;;2.73;;
10491;SDS011;5293;51.464;-2.566;2023-04-03T02:40:51;3.77;;;2.87;;
10491;SDS011;5293;51.464;-2.566;2023-04-03T02:43:17;6.93;;;3.57;;
10491;SDS011;5293;51.464;-2.566;2023-04-03T02:45:43;6.50;;;2.67;;
10491;SDS011;5293;51.464;-2.566;2023-04-03T02:48:09;4.93;;;3.10;;
10491;SDS011;5293;51.464;-2.566;2023-04-03T02:50:34;6.27;;;2.90;;
10491;SDS011;5293;51.464;-2.566;2023-04-03T02:53:00;7.57;;;3.20;;
10491;SDS011;5293;51.464;-2.566;2023-04-03T02:55:26;3.73;;;2.67;;
10491;SDS011;5293;51.464;-2.566;2023-04-03T02:57:51;5.90;;;2.87;;
10491;SDS011;5293;51.464;-2.566;2023-04-03T03:00:17;6.60;;;2.83;;
10491;SDS011;5293;51.464;-2.566;2023-04-03T03:02:43;5.87;;;2.97;;
10491;SDS011;5293;51.464;-2.566;2023-04-03T03:05:09;5.13;;;3.00;;
10491;SDS011;5293;51.464;-2.566;2023-04-03T03:07:35;8.90;;;3.00;;
10491;SDS011;5293;51.464;-2.566;2023-04-03T03:10:00;7.03;;;3.00;;
10491;SDS011;5293;51.464;-2.566;2023-04-03T03:12:26;8.70;;;2.90;;
10491;SDS011;5293;51.464;-2.566;2023-04-03T03:14:51;9.33;;;3.33;;
10491;SDS011;5293;51.464;-2.566;2023-04-03T03:17:17;5.53;;;3.10;;
10491;SDS011;5293;51.464;-2.566;2023-04-03T03:19:43;11.40;;;3.50;;
10491;SDS011;5293;51.464;-2.566;2023-04-03T03:22:10;7.00;;;3.27;;
10491;SDS011;5293;51.464;-2.566;2023-04-03T03:24:36;7.63;;;3.23;;
10491;SDS011;5293;51.464;-2.566;2023-04-03T03:27:02;6.33;;;3.17;;
10491;SDS011;5293;51.464;-2.566;2023-04-03T03:29:27;8.07;;;3.20;;
10491;SDS011;5293;51.464;-2.566;2023-04-03T03:31:53;6.27;;;3.30;;
10491;SDS011;5293;51.464;-2.566;2023-04-03T03:34:19;7.23;;;3.07;;
10491;SDS011;5293;51.464;-2.566;2023-04-03T03:36:44;6.27;;;3.20;;
10491;SDS011;5293;51.464;-2.566;2023-04-03T03:39:10;7.57;;;3.30;;
10491;SDS011;5293;51.464;-2.566;2023-04-03T03:41:37;12.63;;;3.17;;
10491;SDS011;5293;51.464;-2.566;2023-04-03T03:44:03;3.77;;;3.07;;
10491;SDS011;5293;51.464;-2.566;2023-04-03T03:46:29;8.33;;;3.20;;
10491;SDS011;5293;51.464;-2.566;2023-04-03T03:48:54;5.70;;;3.33;;
10491;SDS011;5293;51.464;-2.566;2023-04-03T03:51:20;10.87;;;3.30;;
10491;SDS011;5293;51.464;-2.566;2023-04-03T03:53:45;6.03;;;2.87;;
10491;SDS011;5293;51.464;-2.566;2023-04-03T03:56:11;9.83;;;3.23;;
10491;SDS011;5293;51.464;-2.566;2023-04-03T03:58:37;9.17;;;4.33;;
10491;SDS011;5293;51.464;-2.566;2023-04-03T04:01:03;5.83;;;3.20;;
10491;SDS011;5293;51.464;-2.566;2023-04-03T04:03:30;5.00;;;3.20;;
10491;SDS011;5293;51.464;-2.566;2023-04-03T04:05:56;8.83;;;3.50;;
10491;SDS011;5293;51.464;-2.566;2023-04-03T04:08:22;6.67;;;3.57;;
10491;SDS011;5293;51.464;-2.566;2023-04-03T04:10:48;6.97;;;3.17;;
10491;SDS011;5293;51.464;-2.566;2023-04-03T04:13:13;7.70;;;3.87;;
10491;SDS011;5293;51.464;-2.566;2023-04-03T04:15:39;7.03;;;3.83;;
10491;SDS011;5293;51.464;-2.566;2023-04-03T04:18:05;7.10;;;3.80;;
10491;SDS011;5293;51.464;-2.566;2023-04-03T04:20:31;6.83;;;3.40;;
10491;SDS011;5293;51.464;-2.566;2023-04-03T04:22:56;6.17;;;3.40;;
10491;SDS011;5293;51.464;-2.566;2023-04-03T04:25:22;4.70;;;3.43;;
10491;SDS011;5293;51.464;-2.566;2023-04-03T04:27:48;7.83;;;3.43;;
10491;SDS011;5293;51.464;-2.566;2023-04-03T04:30:13;5.57;;;3.30;;
10491;SDS011;5293;51.464;-2.566;2023-04-03T04:32:39;8.17;;;3.60;;
10491;SDS011;5293;51.464;-2.566;2023-04-03T04:35:05;8.57;;;3.70;;
10491;SDS011;5293;51.464;-2.566;2023-04-03T04:37:31;5.90;;;2.90;;
10491;SDS011;5293;51.464;-2.566;2023-04-03T04:39:57;5.67;;;3.60;;
10491;SDS011;5293;51.464;-2.566;2023-04-03T04:42:22;12.83;;;3.53;;
10491;SDS011;5293;51.464;-2.566;2023-04-03T04:44:48;11.10;;;3.53;;
10491;SDS011;5293;51.464;-2.566;2023-04-03T04:47:14;6.10;;;3.30;;
10491;SDS011;5293;51.464;-2.566;2023-04-03T04:49:40;10.73;;;3.83;;
10491;SDS011;5293;51.464;-2.566;2023-04-03T04:52:05;8.27;;;3.30;;
10491;SDS011;5293;51.464;-2.566;2023-04-03T04:54:31;12.73;;;4.10;;
10491;SDS011;5293;51.464;-2.566;2023-04-03T04:56:57;4.60;;;2.97;;
10491;SDS011;5293;51.464;-2.566;2023-04-03T04:59:22;7.90;;;3.87;;
10491;SDS011;5293;51.464;-2.566;2023-04-03T05:01:48;11.17;;;3.60;;
10491;SDS011;5293;51.464;-2.566;2023-04-03T05:04:14;8.10;;;3.43;;
10491;SDS011;5293;51.464;-2.566;2023-04-03T05:06:40;6.50;;;3.47;;
10491;SDS011;5293;51.464;-2.566;2023-04-03T05:09:05;6.20;;;3.20;;
10491;SDS011;5293;51.464;-2.566;2023-04-03T05:11:31;5.97;;;2.97;;
10491;SDS011;5293;51.464;-2.566;2023-04-03T05:13:57;6.23;;;3.07;;
10491;SDS011;5293;51.464;-2.566;2023-04-03T05:16:23;7.60;;;3.80;;
10491;SDS011;5293;51.464;-2.566;2023-04-03T05:18:49;10.20;;;4.17;;
10491;SDS011;5293;51.464;-2.566;2023-04-03T05:21:15;6.17;;;3.23;;
10491;SDS011;5293;51.464;-2.566;2023-04-03T05:23:40;8.30;;;4.60;;
10491;SDS011;5293;51.464;-2.566;2023-04-03T05:26:06;8.50;;;4.00;;
10491;SDS011;5293;51.464;-2.566;2023-04-03T05:28:32;5.63;;;3.33;;
10491;SDS011;5293;51.464;-2.566;2023-04-03T05:30:59;7.87;;;3.20;;
10491;SDS011;5293;51.464;-2.566;2023-04-03T05:33:25;9.03;;;4.73;;
10491;SDS011;5293;51.464;-2.566;2023-04-03T05:35:52;6.57;;;4.20;;
10491;SDS011;5293;51.464;-2.566;2023-04-03T05:38:18;9.37;;;3.90;;
10491;SDS011;5293;51.464;-2.566;2023-04-03T05:40:43;6.97;;;3.93;;
10491;SDS011;5293;51.464;-2.566;2023-04-03T05:43:09;10.87;;;3.37;;
10491;SDS011;5293;51.464;-2.566;2023-04-03T05:45:35;9.43;;;3.67;;
10491;SDS011;5293;51.464;-2.566;2023-04-03T05:48:01;7.93;;;3.43;;
10491;SDS011;5293;51.464;-2.566;2023-04-03T05:50:27;8.53;;;3.40;;
10491;SDS011;5293;51.464;-2.566;2023-04-03T05:52:53;6.63;;;3.40;;
10491;SDS011;5293;51.464;-2.566;2023-04-03T05:55:21;8.00;;;3.87;;
10491;SDS011;5293;51.464;-2.566;2023-04-03T05:57:47;8.70;;;4.27;;
10491;SDS011;5293;51.464;-2.566;2023-04-03T06:00:13;7.03;;;3.53;;
10491;SDS011;5293;51.464;-2.566;2023-04-03T06:02:40;10.50;;;3.50;;
10491;SDS011;5293;51.464;-2.566;2023-04-03T06:05:07;8.07;;;3.37;;
10491;SDS011;5293;51.464;-2.566;2023-04-03T06:07:33;8.67;;;3.53;;
10491;SDS011;5293;51.464;-2.566;2023-04-03T06:09:59;8.83;;;3.87;;
10491;SDS011;5293;51.464;-2.566;2023-04-03T06:12:26;6.83;;;4.00;;
10491;SDS011;5293;51.464;-2.566;2023-04-03T06:14:54;7.03;;;4.10;;
10491;SDS011;5293;51.464;-2.566;2023-04-03T06:17:20;14.97;;;4.17;;
10491;SDS011;5293;51.464;-2.566;2023-04-03T06:19:46;4.83;;;3.50;;
10491;SDS011;5293;51.464;-2.566;2023-04-03T06:22:12;7.03;;;4.00;;
10491;SDS011;5293;51.464;-2.566;2023-04-03T06:24:38;8.47;;;3.80;;
10491;SDS011;5293;51.464;-2.566;2023-04-03T06:27:04;4.80;;;3.77;;
10491;SDS011;5293;51.464;-2.566;2023-04-03T06:29:30;12.10;;;4.13;;
10491;SDS011;5293;51.464;-2.566;2023-04-03T06:31:56;7.97;;;3.70;;
10491;SDS011;5293;51.464;-2.566;2023-04-03T06:34:22;9.40;;;3.67;;
10491;SDS011;5293;51.464;-2.566;2023-04-03T06:36:48;7.17;;;3.40;;
10491;SDS011;5293;51.464;-2.566;2023-04-03T06:39:17;7.27;;;3.57;;
10491;SDS011;5293;51.464;-2.566;2023-04-03T06:41:48;7.57;;;3.47;;
10491;SDS011;5293;51.464;-2.566;2023-04-03T06:44:14;8.77;;;4.13;;
10491;SDS011;5293;51.464;-2.566;2023-04-03T06:46:41;12.27;;;3.50;;
10491;SDS011;5293;51.464;-2.566;2023-04-03T06:49:07;9.50;;;3.67;;
10491;SDS011;5293;51.464;-2.566;2023-04-03T06:51:34;8.73;;;4.10;;
10491;SDS011;5293;51.464;-2.566;2023-04-03T06:54:00;10.40;;;4.40;;
10491;SDS011;5293;51.464;-2.566;2023-04-03T06:56:27;9.57;;;3.70;;
10491;SDS011;5293;51.464;-2.566;2023-04-03T06:58:54;7.83;;;3.77;;
10491;SDS011;5293;51.464;-2.566;2023-04-03T07:01:22;8.33;;;3.37;;
10491;SDS011;5293;51.464;-2.566;2023-04-03T07:03:50;17.07;;;4.00;;
10491;SDS011;5293;51.464;-2.566;2023-04-03T07:06:16;11.47;;;4.10;;
10491;SDS011;5293;51.464;-2.566;2023-04-03T07:08:42;8.27;;;3.90;;
10491;SDS011;5293;51.464;-2.566;2023-04-03T07:11:09;8.87;;;3.90;;
10491;SDS011;5293;51.464;-2.566;2023-04-03T07:13:36;8.37;;;4.07;;
10491;SDS011;5293;51.464;-2.566;2023-04-03T07:16:02;9.83;;;4.07;;
10491;SDS011;5293;51.464;-2.566;2023-04-03T07:18:30;6.77;;;3.53;;
10491;SDS011;5293;51.464;-2.566;2023-04-03T07:20:57;10.83;;;3.97;;
10491;SDS011;5293;51.464;-2.566;2023-04-03T07:23:23;15.20;;;5.20;;
10491;SDS011;5293;51.464;-2.566;2023-04-03T07:25:49;7.10;;;4.40;;
10491;SDS011;5293;51.464;-2.566;2023-04-03T07:28:16;9.57;;;4.47;;
10491;SDS011;5293;51.464;-2.566;2023-04-03T07:30:53;8.50;;;4.37;;
10491;SDS011;5293;51.464;-2.566;2023-04-03T07:33:25;9.60;;;3.80;;
10491;SDS011;5293;51.464;-2.566;2023-04-03T07:35:51;11.83;;;4.03;;
10491;SDS011;5293;51.464;-2.566;2023-04-03T07:38:16;9.20;;;4.60;;
10491;SDS011;5293;51.464;-2.566;2023-04-03T07:40:46;6.60;;;3.67;;
10491;SDS011;5293;51.464;-2.566;2023-04-03T07:43:13;6.40;;;3.43;;
10491;SDS011;5293;51.464;-2.566;2023-04-03T07:45:41;8.27;;;3.60;;
10491;SDS011;5293;51.464;-2.566;2023-04-03T07:48:08;11.13;;;3.70;;
10491;SDS011;5293;51.464;-2.566;2023-04-03T07:50:35;11.30;;;3.53;;
10491;SDS011;5293;51.464;-2.566;2023-04-03T07:53:01;8.90;;;3.67;;
10491;SDS011;5293;51.464;-2.566;2023-04-03T07:55:27;6.83;;;2.93;;
10491;SDS011;5293;51.464;-2.566;2023-04-03T07:57:53;8.07;;;3.13;;
10491;SDS011;5293;51.464;-2.566;2023-04-03T08:00:20;6.37;;;3.13;;
10491;SDS011;5293;51.464;-2.566;2023-04-03T08:02:46;6.23;;;3.07;;
10491;SDS011;5293;51.464;-2.566;2023-04-03T08:05:16;7.73;;;2.90;;
10491;SDS011;5293;51.464;-2.566;2023-04-03T08:07:44;8.07;;;2.63;;
10491;SDS011;5293;51.464;-2.566;2023-04-03T08:10:11;6.23;;;2.70;;
10491;SDS011;5293;51.464;-2.566;2023-04-03T08:12:37;8.77;;;2.50;;
10491;SDS011;5293;51.464;-2.566;2023-04-03T08:15:03;7.07;;;2.00;;
10491;SDS011;5293;51.464;-2.566;2023-04-03T08:17:29;8.77;;;2.50;;
10491;SDS011;5293;51.464;-2.566;2023-04-03T08:19:55;8.80;;;3.03;;
10491;SDS011;5293;51.464;-2.566;2023-04-03T08:22:21;4.63;;;2.03;;
10491;SDS011;5293;51.464;-2.566;2023-04-03T08:24:46;7.10;;;2.30;;
10491;SDS011;5293;51.464;-2.566;2023-04-03T08:27:12;5.20;;;2.43;;
10491;SDS011;5293;51.464;-2.566;2023-04-03T08:29:38;10.33;;;2.20;;
10491;SDS011;5293;51.464;-2.566;2023-04-03T08:32:04;4.27;;;2.20;;
10491;SDS011;5293;51.464;-2.566;2023-04-03T08:34:30;7.33;;;2.43;;
10491;SDS011;5293;51.464;-2.566;2023-04-03T08:36:59;7.87;;;2.47;;
10491;SDS011;5293;51.464;-2.566;2023-04-03T08:39:26;4.27;;;2.50;;
10491;SDS011;5293;51.464;-2.566;2023-04-03T08:41:51;7.83;;;2.30;;
10491;SDS011;5293;51.464;-2.566;2023-04-03T08:47:22;3.83;;;1.63;;
10491;SDS011;5293;51.464;-2.566;2023-04-03T08:49:52;8.97;;;2.20;;
10491;SDS011;5293;51.464;-2.566;2023-04-03T08:52:35;8.90;;;1.87;;
10491;SDS011;5293;51.464;-2.566;2023-04-03T08:55:06;7.43;;;2.10;;
10491;SDS011;5293;51.464;-2.566;2023-04-03T08:57:43;6.17;;;2.13;;
10491;SDS011;5293;51.464;-2.566;2023-04-03T09:02:43;5.77;;;1.40;;
10491;SDS011;5293;51.464;-2.566;2023-04-03T09:05:12;4.67;;;1.73;;
10491;SDS011;5293;51.464;-2.566;2023-04-03T09:07:44;8.23;;;1.93;;
10491;SDS011;5293;51.464;-2.566;2023-04-03T09:10:15;4.23;;;2.00;;
10491;SDS011;5293;51.464;-2.566;2023-04-03T09:12:47;3.47;;;2.20;;
10491;SDS011;5293;51.464;-2.566;2023-04-03T09:15:21;8.10;;;2.20;;
10491;SDS011;5293;51.464;-2.566;2023-04-03T09:20:56;8.70;;;2.30;;
10491;SDS011;5293;51.464;-2.566;2023-04-03T09:23:41;6.97;;;2.30;;
10491;SDS011;5293;51.464;-2.566;2023-04-03T09:26:14;4.75;;;2.05;;
10491;SDS011;5293;51.464;-2.566;2023-04-03T09:28:48;5.10;;;2.20;;
10491;SDS011;5293;51.464;-2.566;2023-04-03T09:31:24;4.87;;;2.90;;
10491;SDS011;5293;51.464;-2.566;2023-04-03T09:33:54;4.10;;;2.50;;
10491;SDS011;5293;51.464;-2.566;2023-04-03T09:39:11;7.80;;;3.20;;
10491;SDS011;5293;51.464;-2.566;2023-04-03T09:41:39;7.33;;;4.10;;
10491;SDS011;5293;51.464;-2.566;2023-04-03T09:44:17;5.83;;;2.90;;
10491;SDS011;5293;51.464;-2.566;2023-04-03T09:46:47;4.27;;;2.73;;
10491;SDS011;5293;51.464;-2.566;2023-04-03T09:49:13;8.90;;;2.90;;
10491;SDS011;5293;51.464;-2.566;2023-04-03T09:51:38;7.10;;;3.20;;
10491;SDS011;5293;51.464;-2.566;2023-04-03T09:56:51;4.80;;;2.93;;
10491;SDS011;5293;51.464;-2.566;2023-04-03T09:59:18;4.73;;;3.00;;
10491;SDS011;5293;51.464;-2.566;2023-04-03T10:01:58;8.03;;;2.80;;
10491;SDS011;5293;51.464;-2.566;2023-04-03T10:04:24;12.00;;;3.27;;
10491;SDS011;5293;51.464;-2.566;2023-04-03T10:06:54;7.40;;;3.23;;
10491;SDS011;5293;51.464;-2.566;2023-04-03T10:09:24;5.83;;;2.80;;
10491;SDS011;5293;51.464;-2.566;2023-04-03T10:12:11;9.50;;;3.47;;
10491;SDS011;5293;51.464;-2.566;2023-04-03T10:15:00;7.47;;;3.60;;
10491;SDS011;5293;51.464;-2.566;2023-04-03T10:20:52;6.90;;;3.40;;
10491;SDS011;5293;51.464;-2.566;2023-04-03T10:28:38;9.53;;;3.03;;
10491;SDS011;5293;51.464;-2.566;2023-04-03T10:31:14;6.57;;;3.20;;
10491;SDS011;5293;51.464;-2.566;2023-04-03T10:34:10;10.50;;;3.20;;
10491;SDS011;5293;51.464;-2.566;2023-04-03T10:42:34;7.97;;;3.20;;
10491;SDS011;5293;51.464;-2.566;2023-04-03T10:51:09;8.23;;;3.33;;
10491;SDS011;5293;51.464;-2.566;2023-04-03T10:54:38;8.30;;;4.07;;
10491;SDS011;5293;51.464;-2.566;2023-04-03T10:59:25;6.07;;;3.57;;
10491;SDS011;5293;51.464;-2.566;2023-04-03T11:01:56;8.53;;;3.10;;
10491;SDS011;5293;51.464;-2.566;2023-04-03T11:04:25;10.80;;;3.87;;
10491;SDS011;5293;51.464;-2.566;2023-04-03T11:07:00;6.10;;;3.13;;
10491;SDS011;5293;51.464;-2.566;2023-04-03T11:09:35;9.80;;;3.30;;
10491;SDS011;5293;51.464;-2.566;2023-04-03T11:12:13;4.73;;;3.63;;
10491;SDS011;5293;51.464;-2.566;2023-04-03T11:14:44;9.93;;;3.60;;
10491;SDS011;5293;51.464;-2.566;2023-04-03T11:17:20;7.37;;;3.20;;
10491;SDS011;5293;51.464;-2.566;2023-04-03T11:20:17;7.83;;;3.47;;
10491;SDS011;5293;51.464;-2.566;2023-04-03T11:22:54;7.43;;;3.27;;
10491;SDS011;5293;51.464;-2.566;2023-04-03T11:25:29;7.33;;;3.43;;
10491;SDS011;5293;51.464;-2.566;2023-04-03T11:27:58;7.90;;;3.67;;
10491;SDS011;5293;51.464;-2.566;2023-04-03T11:33:25;5.53;;;4.00;;
10491;SDS011;5293;51.464;-2.566;2023-04-03T11:36:32;8.40;;;4.03;;
10491;SDS011;5293;51.464;-2.566;2023-04-03T11:39:10;5.90;;;2.90;;
10491;SDS011;5293;51.464;-2.566;2023-04-03T11:41:53;6.77;;;3.13;;
10491;SDS011;5293;51.464;-2.566;2023-04-03T11:44:36;5.47;;;3.17;;
10491;SDS011;5293;51.464;-2.566;2023-04-03T11:47:04;6.83;;;3.10;;
10491;SDS011;5293;51.464;-2.566;2023-04-03T12:13:36;7.60;;;3.63;;
10491;SDS011;5293;51.464;-2.566;2023-04-03T12:16:05;5.20;;;3.43;;
10491;SDS011;5293;51.464;-2.566;2023-04-03T12:18:43;7.87;;;3.40;;
10491;SDS011;5293;51.464;-2.566;2023-04-03T12:29:43;3.53;;;3.23;;
10491;SDS011;5293;51.464;-2.566;2023-04-03T12:38:10;6.10;;;3.60;;
10491;SDS011;5293;51.464;-2.566;2023-04-03T12:43:24;7.93;;;3.50;;
10491;SDS011;5293;51.464;-2.566;2023-04-03T12:51:40;5.20;;;3.80;;
10491;SDS011;5293;51.464;-2.566;2023-04-03T12:56:41;9.07;;;4.27;;
10491;SDS011;5293;51.464;-2.566;2023-04-03T12:59:23;6.10;;;3.93;;
10491;SDS011;5293;51.464;-2.566;2023-04-03T13:01:58;6.47;;;2.90;;
10491;SDS011;5293;51.464;-2.566;2023-04-03T13:04:25;7.27;;;3.70;;
10491;SDS011;5293;51.464;-2.566;2023-04-03T13:06:52;8.13;;;3.50;;
10491;SDS011;5293;51.464;-2.566;2023-04-03T13:09:25;8.30;;;3.43;;
10491;SDS011;5293;51.464;-2.566;2023-04-03T13:14:50;6.90;;;3.87;;
10491;SDS011;5293;51.464;-2.566;2023-04-03T13:17:20;6.53;;;4.03;;
10491;SDS011;5293;51.464;-2.566;2023-04-03T13:19:46;5.33;;;3.97;;
10491;SDS011;5293;51.464;-2.566;2023-04-03T13:24:50;6.43;;;3.50;;
10491;SDS011;5293;51.464;-2.566;2023-04-03T13:27:17;7.13;;;3.57;;
10491;SDS011;5293;51.464;-2.566;2023-04-03T13:29:43;7.33;;;3.60;;
10491;SDS011;5293;51.464;-2.566;2023-04-03T13:32:16;5.03;;;3.83;;
10491;SDS011;5293;51.464;-2.566;2023-04-03T13:34:45;4.67;;;4.07;;
10491;SDS011;5293;51.464;-2.566;2023-04-03T13:37:25;5.70;;;3.90;;
10491;SDS011;5293;51.464;-2.566;2023-04-03T13:42:33;4.87;;;3.43;;
10491;SDS011;5293;51.464;-2.566;2023-04-03T13:45:27;6.63;;;3.73;;
10491;SDS011;5293;51.464;-2.566;2023-04-03T13:53:41;5.67;;;4.10;;
10491;SDS011;5293;51.464;-2.566;2023-04-03T13:56:32;6.13;;;4.00;;
10491;SDS011;5293;51.464;-2.566;2023-04-03T13:59:18;9.37;;;3.97;;
10491;SDS011;5293;51.464;-2.566;2023-04-03T14:04:54;7.60;;;4.30;;
10491;SDS011;5293;51.464;-2.566;2023-04-03T14:07:25;9.83;;;4.50;;
10491;SDS011;5293;51.464;-2.566;2023-04-03T14:09:51;6.97;;;4.27;;
10491;SDS011;5293;51.464;-2.566;2023-04-03T14:12:19;7.07;;;4.43;;
10491;SDS011;5293;51.464;-2.566;2023-04-03T14:14:51;10.57;;;5.13;;
10491;SDS011;5293;51.464;-2.566;2023-04-03T14:17:21;7.00;;;5.27;;
10491;SDS011;5293;51.464;-2.566;2023-04-03T14:19:49;7.63;;;5.03;;
10491;SDS011;5293;51.464;-2.566;2023-04-03T14:22:21;7.83;;;5.10;;
10491;SDS011;5293;51.464;-2.566;2023-04-03T14:24:50;10.40;;;5.23;;
10491;SDS011;5293;51.464;-2.566;2023-04-03T14:29:44;6.97;;;4.77;;
10491;SDS011;5293;51.464;-2.566;2023-04-03T14:32:11;11.63;;;4.90;;
10491;SDS011;5293;51.464;-2.566;2023-04-03T14:34:38;6.67;;;4.57;;
10491;SDS011;5293;51.464;-2.566;2023-04-03T14:37:05;9.50;;;4.90;;
10491;SDS011;5293;51.464;-2.566;2023-04-03T14:39:34;9.73;;;4.83;;
10491;SDS011;5293;51.464;-2.566;2023-04-03T14:42:00;7.07;;;5.50;;
10491;SDS011;5293;51.464;-2.566;2023-04-03T14:44:26;9.10;;;5.20;;
10491;SDS011;5293;51.464;-2.566;2023-04-03T14:46:52;9.67;;;4.77;;
10491;SDS011;5293;51.464;-2.566;2023-04-03T14:49:19;6.23;;;5.03;;
10491;SDS011;5293;51.464;-2.566;2023-04-03T14:51:47;7.50;;;4.57;;
10491;SDS011;5293;51.464;-2.566;2023-04-03T14:54:14;9.90;;;5.33;;
10491;SDS011;5293;51.464;-2.566;2023-04-03T14:56:41;5.50;;;4.70;;
10491;SDS011;5293;51.464;-2.566;2023-04-03T14:59:08;6.83;;;5.03;;
10491;SDS011;5293;51.464;-2.566;2023-04-03T15:01:36;9.20;;;5.67;;
10491;SDS011;5293;51.464;-2.566;2023-04-03T15:04:01;8.37;;;5.07;;
10491;SDS011;5293;51.464;-2.566;2023-04-03T15:06:30;7.40;;;4.60;;
10491;SDS011;5293;51.464;-2.566;2023-04-03T15:08:57;7.73;;;4.53;;
10491;SDS011;5293;51.464;-2.566;2023-04-03T15:11:23;5.87;;;4.23;;
10491;SDS011;5293;51.464;-2.566;2023-04-03T15:13:50;10.60;;;5.60;;
10491;SDS011;5293;51.464;-2.566;2023-04-03T15:16:16;8.53;;;5.90;;
10491;SDS011;5293;51.464;-2.566;2023-04-03T15:18:44;6.73;;;4.63;;
10491;SDS011;5293;51.464;-2.566;2023-04-03T15:21:11;6.97;;;4.90;;
10491;SDS011;5293;51.464;-2.566;2023-04-03T15:23:37;9.50;;;5.40;;
10491;SDS011;5293;51.464;-2.566;2023-04-03T15:26:03;7.13;;;5.20;;
10491;SDS011;5293;51.464;-2.566;2023-04-03T15:28:40;6.97;;;4.73;;
10491;SDS011;5293;51.464;-2.566;2023-04-03T15:31:07;7.57;;;4.90;;
10491;SDS011;5293;51.464;-2.566;2023-04-03T15:33:33;4.90;;;4.40;;
10491;SDS011;5293;51.464;-2.566;2023-04-03T15:36:00;6.50;;;4.80;;
10491;SDS011;5293;51.464;-2.566;2023-04-03T15:38:26;7.17;;;4.80;;
10491;SDS011;5293;51.464;-2.566;2023-04-03T15:40:51;7.17;;;5.13;;
10491;SDS011;5293;51.464;-2.566;2023-04-03T15:43:18;7.87;;;5.07;;
10491;SDS011;5293;51.464;-2.566;2023-04-03T15:45:44;6.73;;;5.53;;
10491;SDS011;5293;51.464;-2.566;2023-04-03T15:48:10;8.50;;;5.53;;
10491;SDS011;5293;51.464;-2.566;2023-04-03T15:50:36;8.07;;;5.53;;
10491;SDS011;5293;51.464;-2.566;2023-04-03T15:53:03;7.73;;;5.70;;
10491;SDS011;5293;51.464;-2.566;2023-04-03T15:55:29;6.80;;;5.70;;
10491;SDS011;5293;51.464;-2.566;2023-04-03T15:57:57;6.43;;;5.00;;
10491;SDS011;5293;51.464;-2.566;2023-04-03T16:00:23;8.60;;;5.30;;
10491;SDS011;5293;51.464;-2.566;2023-04-03T16:02:50;9.23;;;5.67;;
10491;SDS011;5293;51.464;-2.566;2023-04-03T16:05:18;7.73;;;5.03;;
10491;SDS011;5293;51.464;-2.566;2023-04-03T16:07:44;9.43;;;5.33;;
10491;SDS011;5293;51.464;-2.566;2023-04-03T16:10:12;7.20;;;4.87;;
10491;SDS011;5293;51.464;-2.566;2023-04-03T16:12:39;8.37;;;4.87;;
10491;SDS011;5293;51.464;-2.566;2023-04-03T16:15:05;6.83;;;5.00;;
10491;SDS011;5293;51.464;-2.566;2023-04-03T16:17:32;9.37;;;5.23;;
10491;SDS011;5293;51.464;-2.566;2023-04-03T16:19:58;8.43;;;5.63;;
10491;SDS011;5293;51.464;-2.566;2023-04-03T16:22:25;7.60;;;5.00;;
10491;SDS011;5293;51.464;-2.566;2023-04-03T16:24:53;7.87;;;4.70;;
10491;SDS011;5293;51.464;-2.566;2023-04-03T16:27:19;8.47;;;4.63;;
10491;SDS011;5293;51.464;-2.566;2023-04-03T16:29:45;7.00;;;5.00;;
10491;SDS011;5293;51.464;-2.566;2023-04-03T16:32:11;6.50;;;4.97;;
10491;SDS011;5293;51.464;-2.566;2023-04-03T16:34:38;7.33;;;5.90;;
10491;SDS011;5293;51.464;-2.566;2023-04-03T16:37:05;10.67;;;5.03;;
10491;SDS011;5293;51.464;-2.566;2023-04-03T16:39:33;6.60;;;5.00;;
10491;SDS011;5293;51.464;-2.566;2023-04-03T16:41:59;8.47;;;5.23;;
10491;SDS011;5293;51.464;-2.566;2023-04-03T16:44:25;7.47;;;5.47;;
10491;SDS011;5293;51.464;-2.566;2023-04-03T16:46:51;8.77;;;5.13;;
10491;SDS011;5293;51.464;-2.566;2023-04-03T16:49:17;7.40;;;5.37;;